sensor_id;sensor_type;location;lat;lon;timestamp;P1;durP1;ratioP1;P2;durP2;ratioP2
51925;SDS011;37952;51.938;15.480;2022-12-11T00:03:01;13.20;;;9.70;;
51925;SDS011;37952;51.938;15.480;2022-12-11T00:06:07;11.10;;;9.00;;
51925;SDS011;37952;51.938;15.480;2022-12-11T00:09:11;12.20;;;10.00;;
51925;SDS011;37952;51.938;15.480;2022-12-11T00:12:15;15.80;;;9.30;;
51925;SDS011;37952;51.938;15.480;2022-12-11T00:15:19;15.40;;;10.00;;
51925;SDS011;37952;51.938;15.480;2022-12-11T00:18:22;15.40;;;10.50;;
51925;SDS011;37952;51.938;15.480;2022-12-11T00:21:25;14.20;;;9.60;;
51925;SDS011;37952;51.938;15.480;2022-12-11T00:24:28;13.70;;;9.70;;
51925;SDS011;37952;51.938;15.480;2022-12-11T00:27:30;18.80;;;10.30;;
51925;SDS011;37952;51.938;15.480;2022-12-11T00:30:33;21.50;;;13.00;;
51925;SDS011;37952;51.938;15.480;2022-12-11T00:33:39;16.60;;;10.90;;
51925;SDS011;37952;51.938;15.480;2022-12-11T00:36:42;15.50;;;11.00;;
51925;SDS011;37952;51.938;15.480;2022-12-11T00:39:45;15.20;;;11.30;;
51925;SDS011;37952;51.938;15.480;2022-12-11T00:42:48;16.30;;;10.50;;
51925;SDS011;37952;51.938;15.480;2022-12-11T00:45:51;17.80;;;11.30;;
51925;SDS011;37952;51.938;15.480;2022-12-11T00:48:54;20.10;;;11.70;;
51925;SDS011;37952;51.938;15.480;2022-12-11T00:51:57;17.00;;;10.70;;
51925;SDS011;37952;51.938;15.480;2022-12-11T00:55:00;13.90;;;10.40;;
51925;SDS011;37952;51.938;15.480;2022-12-11T00:58:02;14.30;;;11.10;;
51925;SDS011;37952;51.938;15.480;2022-12-11T01:01:10;15.20;;;10.50;;
51925;SDS011;37952;51.938;15.480;2022-12-11T01:04:23;20.90;;;12.80;;
51925;SDS011;37952;51.938;15.480;2022-12-11T01:07:26;19.10;;;11.40;;
51925;SDS011;37952;51.938;15.480;2022-12-11T01:10:29;18.20;;;12.90;;
51925;SDS011;37952;51.938;15.480;2022-12-11T01:13:32;17.80;;;12.30;;
51925;SDS011;37952;51.938;15.480;2022-12-11T01:16:35;16.60;;;11.50;;
51925;SDS011;37952;51.938;15.480;2022-12-11T01:19:47;16.40;;;10.60;;
51925;SDS011;37952;51.938;15.480;2022-12-11T01:22:51;23.20;;;12.20;;
51925;SDS011;37952;51.938;15.480;2022-12-11T01:25:55;18.80;;;12.20;;
51925;SDS011;37952;51.938;15.480;2022-12-11T01:32:28;16.60;;;12.20;;
51925;SDS011;37952;51.938;15.480;2022-12-11T01:35:31;20.00;;;12.70;;
51925;SDS011;37952;51.938;15.480;2022-12-11T01:38:34;16.50;;;10.80;;
51925;SDS011;37952;51.938;15.480;2022-12-11T01:41:37;22.50;;;12.90;;
51925;SDS011;37952;51.938;15.480;2022-12-11T01:47:42;18.40;;;12.10;;
51925;SDS011;37952;51.938;15.480;2022-12-11T01:50:59;15.00;;;11.70;;
51925;SDS011;37952;51.938;15.480;2022-12-11T01:54:06;17.20;;;11.50;;
51925;SDS011;37952;51.938;15.480;2022-12-11T01:57:13;18.50;;;11.10;;
51925;SDS011;37952;51.938;15.480;2022-12-11T02:00:17;20.50;;;12.10;;
51925;SDS011;37952;51.938;15.480;2022-12-11T02:03:21;22.30;;;12.40;;
51925;SDS011;37952;51.938;15.480;2022-12-11T02:06:43;20.80;;;11.60;;
51925;SDS011;37952;51.938;15.480;2022-12-11T02:09:49;19.20;;;13.20;;
51925;SDS011;37952;51.938;15.480;2022-12-11T02:16:25;19.70;;;11.70;;
51925;SDS011;37952;51.938;15.480;2022-12-11T02:29:37;14.10;;;9.60;;
51925;SDS011;37952;51.938;15.480;2022-12-11T02:32:53;17.80;;;10.20;;
51925;SDS011;37952;51.938;15.480;2022-12-11T02:39:02;21.10;;;10.10;;
51925;SDS011;37952;51.938;15.480;2022-12-11T02:42:07;20.80;;;10.60;;
51925;SDS011;37952;51.938;15.480;2022-12-11T02:45:12;15.20;;;10.90;;
51925;SDS011;37952;51.938;15.480;2022-12-11T02:48:16;14.60;;;11.40;;
51925;SDS011;37952;51.938;15.480;2022-12-11T02:51:21;20.20;;;10.90;;
51925;SDS011;37952;51.938;15.480;2022-12-11T02:54:30;21.60;;;11.80;;
51925;SDS011;37952;51.938;15.480;2022-12-11T02:57:48;16.40;;;10.70;;
51925;SDS011;37952;51.938;15.480;2022-12-11T03:00:54;21.20;;;12.20;;
51925;SDS011;37952;51.938;15.480;2022-12-11T03:07:27;13.50;;;10.40;;
51925;SDS011;37952;51.938;15.480;2022-12-11T03:10:35;11.40;;;9.30;;
51925;SDS011;37952;51.938;15.480;2022-12-11T03:13:38;15.60;;;10.60;;
51925;SDS011;37952;51.938;15.480;2022-12-11T03:16:55;14.20;;;10.80;;
51925;SDS011;37952;51.938;15.480;2022-12-11T03:20:32;17.70;;;12.10;;
51925;SDS011;37952;51.938;15.480;2022-12-11T03:27:17;13.10;;;8.90;;
51925;SDS011;37952;51.938;15.480;2022-12-11T03:30:21;13.50;;;9.80;;
51925;SDS011;37952;51.938;15.480;2022-12-11T03:33:28;12.70;;;9.00;;
51925;SDS011;37952;51.938;15.480;2022-12-11T03:36:35;16.60;;;11.00;;
51925;SDS011;37952;51.938;15.480;2022-12-11T03:39:46;11.00;;;8.80;;
51925;SDS011;37952;51.938;15.480;2022-12-11T03:42:51;15.60;;;9.30;;
51925;SDS011;37952;51.938;15.480;2022-12-11T03:45:58;15.80;;;10.20;;
51925;SDS011;37952;51.938;15.480;2022-12-11T03:49:14;13.30;;;9.90;;
51925;SDS011;37952;51.938;15.480;2022-12-11T03:52:22;10.80;;;9.50;;
51925;SDS011;37952;51.938;15.480;2022-12-11T03:55:29;12.60;;;10.50;;
51925;SDS011;37952;51.938;15.480;2022-12-11T03:58:33;12.10;;;9.20;;
51925;SDS011;37952;51.938;15.480;2022-12-11T04:01:36;14.50;;;9.30;;
51925;SDS011;37952;51.938;15.480;2022-12-11T04:04:40;11.70;;;9.00;;
51925;SDS011;37952;51.938;15.480;2022-12-11T04:07:43;15.40;;;9.50;;
51925;SDS011;37952;51.938;15.480;2022-12-11T04:10:46;10.00;;;9.00;;
51925;SDS011;37952;51.938;15.480;2022-12-11T04:13:50;12.00;;;8.30;;
51925;SDS011;37952;51.938;15.480;2022-12-11T04:17:13;11.30;;;8.70;;
51925;SDS011;37952;51.938;15.480;2022-12-11T04:20:36;18.70;;;10.10;;
51925;SDS011;37952;51.938;15.480;2022-12-11T04:23:57;13.60;;;9.70;;
51925;SDS011;37952;51.938;15.480;2022-12-11T04:27:18;13.00;;;9.40;;
51925;SDS011;37952;51.938;15.480;2022-12-11T04:30:40;12.10;;;9.00;;
51925;SDS011;37952;51.938;15.480;2022-12-11T04:33:45;13.80;;;9.00;;
51925;SDS011;37952;51.938;15.480;2022-12-11T04:36:49;15.80;;;9.60;;
51925;SDS011;37952;51.938;15.480;2022-12-11T04:39:52;11.90;;;9.20;;
51925;SDS011;37952;51.938;15.480;2022-12-11T04:42:55;12.90;;;9.50;;
51925;SDS011;37952;51.938;15.480;2022-12-11T04:46:02;11.70;;;9.70;;
51925;SDS011;37952;51.938;15.480;2022-12-11T04:49:08;10.90;;;9.10;;
51925;SDS011;37952;51.938;15.480;2022-12-11T04:52:11;9.20;;;8.20;;
51925;SDS011;37952;51.938;15.480;2022-12-11T04:58:45;14.60;;;9.50;;
51925;SDS011;37952;51.938;15.480;2022-12-11T05:01:53;11.30;;;8.50;;
51925;SDS011;37952;51.938;15.480;2022-12-11T05:04:56;14.30;;;11.40;;
51925;SDS011;37952;51.938;15.480;2022-12-11T05:07:59;10.60;;;9.10;;
51925;SDS011;37952;51.938;15.480;2022-12-11T05:11:03;10.40;;;8.40;;
51925;SDS011;37952;51.938;15.480;2022-12-11T05:14:08;14.80;;;10.10;;
51925;SDS011;37952;51.938;15.480;2022-12-11T05:17:11;16.10;;;10.80;;
51925;SDS011;37952;51.938;15.480;2022-12-11T05:20:13;14.10;;;9.60;;
51925;SDS011;37952;51.938;15.480;2022-12-11T05:23:16;12.50;;;9.80;;
51925;SDS011;37952;51.938;15.480;2022-12-11T05:26:19;13.00;;;9.40;;
51925;SDS011;37952;51.938;15.480;2022-12-11T05:29:22;10.60;;;8.60;;
51925;SDS011;37952;51.938;15.480;2022-12-11T05:32:25;14.00;;;9.70;;
51925;SDS011;37952;51.938;15.480;2022-12-11T05:35:28;14.30;;;10.00;;
51925;SDS011;37952;51.938;15.480;2022-12-11T05:38:32;13.30;;;9.70;;
51925;SDS011;37952;51.938;15.480;2022-12-11T05:41:35;9.80;;;8.80;;
51925;SDS011;37952;51.938;15.480;2022-12-11T05:48:36;11.00;;;8.30;;
51925;SDS011;37952;51.938;15.480;2022-12-11T05:51:40;14.80;;;9.40;;
51925;SDS011;37952;51.938;15.480;2022-12-11T05:54:47;18.70;;;11.30;;
51925;SDS011;37952;51.938;15.480;2022-12-11T05:57:51;13.70;;;10.20;;
51925;SDS011;37952;51.938;15.480;2022-12-11T06:00:53;9.60;;;8.50;;
51925;SDS011;37952;51.938;15.480;2022-12-11T06:03:56;12.30;;;9.40;;
51925;SDS011;37952;51.938;15.480;2022-12-11T06:07:00;14.50;;;9.70;;
51925;SDS011;37952;51.938;15.480;2022-12-11T06:10:03;20.30;;;11.70;;
51925;SDS011;37952;51.938;15.480;2022-12-11T06:13:06;23.70;;;11.90;;
51925;SDS011;37952;51.938;15.480;2022-12-11T06:16:09;13.80;;;11.70;;
51925;SDS011;37952;51.938;15.480;2022-12-11T06:19:13;15.10;;;10.70;;
51925;SDS011;37952;51.938;15.480;2022-12-11T06:22:17;10.40;;;8.90;;
51925;SDS011;37952;51.938;15.480;2022-12-11T06:25:19;18.50;;;11.20;;
51925;SDS011;37952;51.938;15.480;2022-12-11T06:28:22;21.40;;;13.00;;
51925;SDS011;37952;51.938;15.480;2022-12-11T06:31:25;13.20;;;10.50;;
51925;SDS011;37952;51.938;15.480;2022-12-11T06:34:29;14.70;;;10.50;;
51925;SDS011;37952;51.938;15.480;2022-12-11T06:37:33;16.40;;;10.60;;
51925;SDS011;37952;51.938;15.480;2022-12-11T06:40:37;23.20;;;11.60;;
51925;SDS011;37952;51.938;15.480;2022-12-11T06:43:40;18.60;;;10.90;;
51925;SDS011;37952;51.938;15.480;2022-12-11T06:46:45;12.20;;;8.80;;
51925;SDS011;37952;51.938;15.480;2022-12-11T06:49:48;13.40;;;10.50;;
51925;SDS011;37952;51.938;15.480;2022-12-11T06:52:54;18.00;;;12.00;;
51925;SDS011;37952;51.938;15.480;2022-12-11T06:56:04;19.60;;;10.70;;
51925;SDS011;37952;51.938;15.480;2022-12-11T06:59:10;22.10;;;12.90;;
51925;SDS011;37952;51.938;15.480;2022-12-11T07:02:17;21.90;;;13.00;;
51925;SDS011;37952;51.938;15.480;2022-12-11T07:05:22;18.50;;;12.40;;
51925;SDS011;37952;51.938;15.480;2022-12-11T07:08:26;15.30;;;11.70;;
51925;SDS011;37952;51.938;15.480;2022-12-11T07:11:30;16.40;;;10.40;;
51925;SDS011;37952;51.938;15.480;2022-12-11T07:14:35;22.20;;;12.10;;
51925;SDS011;37952;51.938;15.480;2022-12-11T07:17:38;24.20;;;14.40;;
51925;SDS011;37952;51.938;15.480;2022-12-11T07:20:41;20.10;;;12.60;;
51925;SDS011;37952;51.938;15.480;2022-12-11T07:23:44;19.30;;;12.90;;
51925;SDS011;37952;51.938;15.480;2022-12-11T07:26:46;13.80;;;10.90;;
51925;SDS011;37952;51.938;15.480;2022-12-11T07:29:49;18.00;;;10.80;;
51925;SDS011;37952;51.938;15.480;2022-12-11T07:32:53;17.70;;;12.30;;
51925;SDS011;37952;51.938;15.480;2022-12-11T07:35:59;25.40;;;13.60;;
51925;SDS011;37952;51.938;15.480;2022-12-11T07:39:03;15.60;;;11.00;;
51925;SDS011;37952;51.938;15.480;2022-12-11T07:42:06;18.50;;;12.30;;
51925;SDS011;37952;51.938;15.480;2022-12-11T07:45:08;17.60;;;11.30;;
51925;SDS011;37952;51.938;15.480;2022-12-11T07:48:12;19.10;;;12.10;;
51925;SDS011;37952;51.938;15.480;2022-12-11T07:51:25;26.50;;;12.10;;
51925;SDS011;37952;51.938;15.480;2022-12-11T07:54:30;25.90;;;12.40;;
51925;SDS011;37952;51.938;15.480;2022-12-11T07:57:34;17.80;;;11.70;;
51925;SDS011;37952;51.938;15.480;2022-12-11T08:00:37;16.00;;;11.20;;
51925;SDS011;37952;51.938;15.480;2022-12-11T08:03:40;18.00;;;10.60;;
51925;SDS011;37952;51.938;15.480;2022-12-11T08:06:47;19.40;;;10.70;;
51925;SDS011;37952;51.938;15.480;2022-12-11T08:09:49;20.90;;;12.20;;
51925;SDS011;37952;51.938;15.480;2022-12-11T08:12:52;19.90;;;12.10;;
51925;SDS011;37952;51.938;15.480;2022-12-11T08:15:55;15.90;;;11.20;;
51925;SDS011;37952;51.938;15.480;2022-12-11T08:18:59;15.00;;;10.10;;
51925;SDS011;37952;51.938;15.480;2022-12-11T08:22:02;17.50;;;11.70;;
51925;SDS011;37952;51.938;15.480;2022-12-11T08:25:05;20.20;;;11.30;;
51925;SDS011;37952;51.938;15.480;2022-12-11T08:28:08;19.20;;;11.80;;
51925;SDS011;37952;51.938;15.480;2022-12-11T08:31:12;16.60;;;10.70;;
51925;SDS011;37952;51.938;15.480;2022-12-11T08:37:46;14.00;;;10.40;;
51925;SDS011;37952;51.938;15.480;2022-12-11T08:45:28;11.40;;;9.40;;
51925;SDS011;37952;51.938;15.480;2022-12-11T08:48:31;16.80;;;11.00;;
51925;SDS011;37952;51.938;15.480;2022-12-11T08:51:35;15.80;;;10.30;;
51925;SDS011;37952;51.938;15.480;2022-12-11T08:54:38;12.80;;;9.40;;
51925;SDS011;37952;51.938;15.480;2022-12-11T08:57:41;17.00;;;10.30;;
51925;SDS011;37952;51.938;15.480;2022-12-11T09:00:44;19.00;;;11.10;;
51925;SDS011;37952;51.938;15.480;2022-12-11T09:03:47;10.70;;;8.70;;
51925;SDS011;37952;51.938;15.480;2022-12-11T09:06:50;12.10;;;10.60;;
51925;SDS011;37952;51.938;15.480;2022-12-11T09:09:54;14.60;;;11.20;;
51925;SDS011;37952;51.938;15.480;2022-12-11T09:17:18;14.00;;;9.50;;
51925;SDS011;37952;51.938;15.480;2022-12-11T09:20:21;15.30;;;10.70;;
51925;SDS011;37952;51.938;15.480;2022-12-11T09:23:24;16.60;;;10.30;;
51925;SDS011;37952;51.938;15.480;2022-12-11T09:26:27;14.20;;;11.40;;
51925;SDS011;37952;51.938;15.480;2022-12-11T09:29:31;13.60;;;9.90;;
51925;SDS011;37952;51.938;15.480;2022-12-11T09:32:34;16.90;;;11.30;;
51925;SDS011;37952;51.938;15.480;2022-12-11T09:35:37;12.80;;;10.20;;
51925;SDS011;37952;51.938;15.480;2022-12-11T09:38:40;12.40;;;9.90;;
51925;SDS011;37952;51.938;15.480;2022-12-11T09:41:47;14.00;;;9.30;;
51925;SDS011;37952;51.938;15.480;2022-12-11T09:44:57;17.00;;;11.10;;
51925;SDS011;37952;51.938;15.480;2022-12-11T09:48:04;15.60;;;11.40;;
51925;SDS011;37952;51.938;15.480;2022-12-11T09:51:12;10.30;;;9.00;;
51925;SDS011;37952;51.938;15.480;2022-12-11T09:54:34;11.10;;;9.20;;
51925;SDS011;37952;51.938;15.480;2022-12-11T10:18:32;11.80;;;8.50;;
51925;SDS011;37952;51.938;15.480;2022-12-11T10:25:05;10.50;;;9.10;;
51925;SDS011;37952;51.938;15.480;2022-12-11T10:28:16;12.90;;;8.80;;
51925;SDS011;37952;51.938;15.480;2022-12-11T10:34:46;14.30;;;9.40;;
51925;SDS011;37952;51.938;15.480;2022-12-11T10:37:58;14.40;;;10.90;;
51925;SDS011;37952;51.938;15.480;2022-12-11T10:44:41;20.00;;;10.60;;
51925;SDS011;37952;51.938;15.480;2022-12-11T10:48:01;15.10;;;9.70;;
51925;SDS011;37952;51.938;15.480;2022-12-11T10:51:14;19.60;;;11.80;;
51925;SDS011;37952;51.938;15.480;2022-12-11T10:57:45;11.20;;;10.10;;
51925;SDS011;37952;51.938;15.480;2022-12-11T11:01:07;10.10;;;8.70;;
51925;SDS011;37952;51.938;15.480;2022-12-11T11:04:34;17.00;;;9.70;;
51925;SDS011;37952;51.938;15.480;2022-12-11T11:07:39;13.30;;;9.30;;
51925;SDS011;37952;51.938;15.480;2022-12-11T11:10:56;10.70;;;9.30;;
51925;SDS011;37952;51.938;15.480;2022-12-11T11:14:04;11.80;;;9.00;;
51925;SDS011;37952;51.938;15.480;2022-12-11T11:17:10;15.50;;;9.20;;
51925;SDS011;37952;51.938;15.480;2022-12-11T11:20:18;10.20;;;8.90;;
51925;SDS011;37952;51.938;15.480;2022-12-11T11:23:23;13.80;;;9.40;;
51925;SDS011;37952;51.938;15.480;2022-12-11T11:26:30;13.90;;;9.50;;
51925;SDS011;37952;51.938;15.480;2022-12-11T11:30:05;12.30;;;8.00;;
51925;SDS011;37952;51.938;15.480;2022-12-11T11:33:20;12.50;;;8.30;;
51925;SDS011;37952;51.938;15.480;2022-12-11T11:36:25;14.70;;;8.90;;
51925;SDS011;37952;51.938;15.480;2022-12-11T11:39:36;13.30;;;8.30;;
51925;SDS011;37952;51.938;15.480;2022-12-11T11:53:19;11.50;;;8.50;;
51925;SDS011;37952;51.938;15.480;2022-12-11T11:56:32;16.50;;;10.50;;
51925;SDS011;37952;51.938;15.480;2022-12-11T11:59:46;10.70;;;9.00;;
51925;SDS011;37952;51.938;15.480;2022-12-11T12:02:55;9.20;;;8.00;;
51925;SDS011;37952;51.938;15.480;2022-12-11T12:13:04;12.60;;;8.90;;
51925;SDS011;37952;51.938;15.480;2022-12-11T12:23:29;8.30;;;7.50;;
51925;SDS011;37952;51.938;15.480;2022-12-11T12:26:48;9.60;;;7.30;;
51925;SDS011;37952;51.938;15.480;2022-12-11T12:30:06;14.50;;;10.40;;
51925;SDS011;37952;51.938;15.480;2022-12-11T12:33:34;11.70;;;9.10;;
51925;SDS011;37952;51.938;15.480;2022-12-11T12:40:32;10.10;;;8.00;;
51925;SDS011;37952;51.938;15.480;2022-12-11T12:43:55;9.60;;;8.60;;
51925;SDS011;37952;51.938;15.480;2022-12-11T12:47:09;8.60;;;7.40;;
51925;SDS011;37952;51.938;15.480;2022-12-11T12:50:18;9.00;;;8.10;;
51925;SDS011;37952;51.938;15.480;2022-12-11T12:53:24;11.60;;;8.10;;
51925;SDS011;37952;51.938;15.480;2022-12-11T12:56:30;9.90;;;8.40;;
51925;SDS011;37952;51.938;15.480;2022-12-11T12:59:36;10.20;;;9.10;;
51925;SDS011;37952;51.938;15.480;2022-12-11T13:02:54;10.40;;;8.10;;
51925;SDS011;37952;51.938;15.480;2022-12-11T13:09:11;13.10;;;9.50;;
51925;SDS011;37952;51.938;15.480;2022-12-11T13:12:20;11.10;;;8.40;;
51925;SDS011;37952;51.938;15.480;2022-12-11T13:15:38;9.00;;;8.10;;
51925;SDS011;37952;51.938;15.480;2022-12-11T13:18:46;9.70;;;8.00;;
51925;SDS011;37952;51.938;15.480;2022-12-11T13:22:24;11.10;;;8.80;;
51925;SDS011;37952;51.938;15.480;2022-12-11T13:25:24;9.80;;;8.50;;
51925;SDS011;37952;51.938;15.480;2022-12-11T13:32:57;8.50;;;7.70;;
51925;SDS011;37952;51.938;15.480;2022-12-11T13:39:36;10.70;;;8.60;;
51925;SDS011;37952;51.938;15.480;2022-12-11T13:42:54;11.30;;;9.40;;
51925;SDS011;37952;51.938;15.480;2022-12-11T13:46:05;8.60;;;7.60;;
51925;SDS011;37952;51.938;15.480;2022-12-11T13:49:47;15.60;;;10.60;;
51925;SDS011;37952;51.938;15.480;2022-12-11T13:52:54;11.10;;;8.80;;
51925;SDS011;37952;51.938;15.480;2022-12-11T13:56:00;10.30;;;8.20;;
51925;SDS011;37952;51.938;15.480;2022-12-11T13:59:15;9.80;;;8.80;;
51925;SDS011;37952;51.938;15.480;2022-12-11T14:05:33;9.80;;;8.80;;
51925;SDS011;37952;51.938;15.480;2022-12-11T14:08:37;10.70;;;8.70;;
51925;SDS011;37952;51.938;15.480;2022-12-11T14:11:44;14.60;;;9.40;;
51925;SDS011;37952;51.938;15.480;2022-12-11T14:14:55;9.30;;;8.40;;
51925;SDS011;37952;51.938;15.480;2022-12-11T14:18:00;9.20;;;8.20;;
51925;SDS011;37952;51.938;15.480;2022-12-11T14:21:04;12.20;;;8.60;;
51925;SDS011;37952;51.938;15.480;2022-12-11T14:24:11;10.40;;;8.90;;
51925;SDS011;37952;51.938;15.480;2022-12-11T14:27:16;12.50;;;9.60;;
51925;SDS011;37952;51.938;15.480;2022-12-11T14:30:25;8.80;;;7.60;;
51925;SDS011;37952;51.938;15.480;2022-12-11T14:33:31;7.60;;;6.90;;
51925;SDS011;37952;51.938;15.480;2022-12-11T14:36:38;7.40;;;6.50;;
51925;SDS011;37952;51.938;15.480;2022-12-11T14:39:44;9.20;;;7.40;;
51925;SDS011;37952;51.938;15.480;2022-12-11T14:42:58;8.10;;;7.20;;
51925;SDS011;37952;51.938;15.480;2022-12-11T14:46:09;7.20;;;6.40;;
51925;SDS011;37952;51.938;15.480;2022-12-11T14:49:28;7.60;;;6.80;;
51925;SDS011;37952;51.938;15.480;2022-12-11T14:52:45;6.80;;;6.30;;
51925;SDS011;37952;51.938;15.480;2022-12-11T14:55:50;11.20;;;8.90;;
51925;SDS011;37952;51.938;15.480;2022-12-11T14:58:56;8.30;;;7.50;;
51925;SDS011;37952;51.938;15.480;2022-12-11T15:02:03;8.00;;;7.20;;
51925;SDS011;37952;51.938;15.480;2022-12-11T15:05:52;8.60;;;7.10;;
51925;SDS011;37952;51.938;15.480;2022-12-11T15:12:07;6.90;;;6.20;;
51925;SDS011;37952;51.938;15.480;2022-12-11T15:15:16;10.70;;;7.50;;
51925;SDS011;37952;51.938;15.480;2022-12-11T15:18:24;14.60;;;8.40;;
51925;SDS011;37952;51.938;15.480;2022-12-11T15:21:31;7.40;;;6.60;;
51925;SDS011;37952;51.938;15.480;2022-12-11T15:24:40;8.10;;;7.20;;
51925;SDS011;37952;51.938;15.480;2022-12-11T15:27:48;8.80;;;6.50;;
51925;SDS011;37952;51.938;15.480;2022-12-11T15:30:57;9.30;;;6.80;;
51925;SDS011;37952;51.938;15.480;2022-12-11T15:34:19;11.30;;;9.00;;
51925;SDS011;37952;51.938;15.480;2022-12-11T15:37:24;11.40;;;8.30;;
51925;SDS011;37952;51.938;15.480;2022-12-11T15:40:37;8.90;;;7.60;;
51925;SDS011;37952;51.938;15.480;2022-12-11T15:43:40;7.50;;;6.70;;
51925;SDS011;37952;51.938;15.480;2022-12-11T15:46:45;11.10;;;8.70;;
51925;SDS011;37952;51.938;15.480;2022-12-11T15:53:23;16.30;;;10.10;;
51925;SDS011;37952;51.938;15.480;2022-12-11T15:56:26;9.30;;;8.30;;
51925;SDS011;37952;51.938;15.480;2022-12-11T15:59:29;13.00;;;9.20;;
51925;SDS011;37952;51.938;15.480;2022-12-11T16:02:33;16.10;;;8.70;;
51925;SDS011;37952;51.938;15.480;2022-12-11T16:05:36;15.90;;;9.50;;
51925;SDS011;37952;51.938;15.480;2022-12-11T16:08:39;14.80;;;9.80;;
51925;SDS011;37952;51.938;15.480;2022-12-11T16:11:41;9.80;;;8.00;;
51925;SDS011;37952;51.938;15.480;2022-12-11T16:14:44;11.60;;;8.10;;
51925;SDS011;37952;51.938;15.480;2022-12-11T16:17:47;21.60;;;10.10;;
51925;SDS011;37952;51.938;15.480;2022-12-11T16:20:50;18.30;;;11.00;;
51925;SDS011;37952;51.938;15.480;2022-12-11T16:23:53;11.60;;;9.30;;
51925;SDS011;37952;51.938;15.480;2022-12-11T16:26:56;19.30;;;12.50;;
51925;SDS011;37952;51.938;15.480;2022-12-11T16:29:59;19.20;;;11.30;;
51925;SDS011;37952;51.938;15.480;2022-12-11T16:33:02;22.90;;;13.40;;
51925;SDS011;37952;51.938;15.480;2022-12-11T16:36:14;17.60;;;9.60;;
51925;SDS011;37952;51.938;15.480;2022-12-11T16:39:19;17.00;;;10.30;;
51925;SDS011;37952;51.938;15.480;2022-12-11T16:42:22;13.10;;;10.40;;
51925;SDS011;37952;51.938;15.480;2022-12-11T16:45:25;15.50;;;9.00;;
51925;SDS011;37952;51.938;15.480;2022-12-11T16:48:28;13.70;;;8.80;;
51925;SDS011;37952;51.938;15.480;2022-12-11T16:51:31;12.80;;;8.90;;
51925;SDS011;37952;51.938;15.480;2022-12-11T16:54:34;14.80;;;9.40;;
51925;SDS011;37952;51.938;15.480;2022-12-11T16:57:37;15.80;;;11.50;;
51925;SDS011;37952;51.938;15.480;2022-12-11T17:00:40;14.80;;;9.80;;
51925;SDS011;37952;51.938;15.480;2022-12-11T17:03:43;21.60;;;11.30;;
51925;SDS011;37952;51.938;15.480;2022-12-11T17:06:46;19.20;;;11.10;;
51925;SDS011;37952;51.938;15.480;2022-12-11T17:09:50;20.80;;;11.70;;
51925;SDS011;37952;51.938;15.480;2022-12-11T17:12:53;17.80;;;11.70;;
51925;SDS011;37952;51.938;15.480;2022-12-11T17:15:56;15.10;;;10.40;;
51925;SDS011;37952;51.938;15.480;2022-12-11T17:19:02;14.10;;;9.50;;
51925;SDS011;37952;51.938;15.480;2022-12-11T17:22:08;13.50;;;9.60;;
51925;SDS011;37952;51.938;15.480;2022-12-11T17:25:11;14.80;;;10.20;;
51925;SDS011;37952;51.938;15.480;2022-12-11T17:28:18;15.80;;;11.20;;
51925;SDS011;37952;51.938;15.480;2022-12-11T17:31:21;21.40;;;12.50;;
51925;SDS011;37952;51.938;15.480;2022-12-11T17:34:24;16.70;;;12.30;;
51925;SDS011;37952;51.938;15.480;2022-12-11T17:37:26;16.10;;;10.40;;
51925;SDS011;37952;51.938;15.480;2022-12-11T17:40:29;13.00;;;9.80;;
51925;SDS011;37952;51.938;15.480;2022-12-11T17:43:32;13.80;;;9.80;;
51925;SDS011;37952;51.938;15.480;2022-12-11T17:46:35;16.20;;;9.90;;
51925;SDS011;37952;51.938;15.480;2022-12-11T17:49:39;13.10;;;9.30;;
51925;SDS011;37952;51.938;15.480;2022-12-11T17:52:42;14.10;;;9.90;;
51925;SDS011;37952;51.938;15.480;2022-12-11T17:55:46;12.40;;;10.80;;
51925;SDS011;37952;51.938;15.480;2022-12-11T17:58:49;18.30;;;10.40;;
51925;SDS011;37952;51.938;15.480;2022-12-11T18:01:53;10.20;;;8.20;;
51925;SDS011;37952;51.938;15.480;2022-12-11T18:04:55;11.10;;;9.20;;
51925;SDS011;37952;51.938;15.480;2022-12-11T18:07:58;18.10;;;11.00;;
51925;SDS011;37952;51.938;15.480;2022-12-11T18:11:05;13.20;;;10.10;;
51925;SDS011;37952;51.938;15.480;2022-12-11T18:14:13;13.10;;;11.00;;
51925;SDS011;37952;51.938;15.480;2022-12-11T18:17:19;14.20;;;10.20;;
51925;SDS011;37952;51.938;15.480;2022-12-11T18:20:22;17.50;;;11.10;;
51925;SDS011;37952;51.938;15.480;2022-12-11T18:23:26;16.10;;;11.30;;
51925;SDS011;37952;51.938;15.480;2022-12-11T18:26:29;13.10;;;10.00;;
51925;SDS011;37952;51.938;15.480;2022-12-11T18:29:33;13.00;;;10.10;;
51925;SDS011;37952;51.938;15.480;2022-12-11T18:32:36;12.10;;;9.90;;
51925;SDS011;37952;51.938;15.480;2022-12-11T18:35:39;15.60;;;9.70;;
51925;SDS011;37952;51.938;15.480;2022-12-11T18:38:43;15.00;;;9.20;;
51925;SDS011;37952;51.938;15.480;2022-12-11T18:41:46;15.40;;;11.00;;
51925;SDS011;37952;51.938;15.480;2022-12-11T18:45:09;17.80;;;10.80;;
51925;SDS011;37952;51.938;15.480;2022-12-11T18:48:13;12.20;;;9.60;;
51925;SDS011;37952;51.938;15.480;2022-12-11T18:51:17;11.10;;;8.70;;
51925;SDS011;37952;51.938;15.480;2022-12-11T18:54:25;12.50;;;9.00;;
51925;SDS011;37952;51.938;15.480;2022-12-11T18:57:27;15.00;;;9.80;;
51925;SDS011;37952;51.938;15.480;2022-12-11T19:00:30;15.10;;;10.10;;
51925;SDS011;37952;51.938;15.480;2022-12-11T19:03:33;12.40;;;10.40;;
51925;SDS011;37952;51.938;15.480;2022-12-11T19:06:37;14.20;;;9.70;;
51925;SDS011;37952;51.938;15.480;2022-12-11T19:09:40;15.40;;;10.70;;
51925;SDS011;37952;51.938;15.480;2022-12-11T19:12:49;11.50;;;8.80;;
51925;SDS011;37952;51.938;15.480;2022-12-11T19:15:52;12.30;;;9.30;;
51925;SDS011;37952;51.938;15.480;2022-12-11T19:18:58;13.10;;;9.90;;
51925;SDS011;37952;51.938;15.480;2022-12-11T19:22:03;8.50;;;7.70;;
51925;SDS011;37952;51.938;15.480;2022-12-11T19:25:06;13.30;;;9.10;;
51925;SDS011;37952;51.938;15.480;2022-12-11T19:28:10;10.60;;;9.30;;
51925;SDS011;37952;51.938;15.480;2022-12-11T19:31:14;11.70;;;9.20;;
51925;SDS011;37952;51.938;15.480;2022-12-11T19:34:19;14.80;;;10.00;;
51925;SDS011;37952;51.938;15.480;2022-12-11T19:37:22;14.20;;;10.20;;
51925;SDS011;37952;51.938;15.480;2022-12-11T19:40:25;11.50;;;9.40;;
51925;SDS011;37952;51.938;15.480;2022-12-11T19:43:28;11.50;;;9.30;;
51925;SDS011;37952;51.938;15.480;2022-12-11T19:46:31;10.70;;;8.30;;
51925;SDS011;37952;51.938;15.480;2022-12-11T19:49:34;13.40;;;9.40;;
51925;SDS011;37952;51.938;15.480;2022-12-11T19:52:37;13.80;;;10.00;;
51925;SDS011;37952;51.938;15.480;2022-12-11T19:55:51;11.00;;;9.90;;
51925;SDS011;37952;51.938;15.480;2022-12-11T19:58:54;9.30;;;8.00;;
51925;SDS011;37952;51.938;15.480;2022-12-11T20:01:57;13.70;;;9.70;;
51925;SDS011;37952;51.938;15.480;2022-12-11T20:05:00;13.80;;;10.40;;
51925;SDS011;37952;51.938;15.480;2022-12-11T20:08:03;11.80;;;8.70;;
51925;SDS011;37952;51.938;15.480;2022-12-11T20:11:26;16.60;;;10.80;;
51925;SDS011;37952;51.938;15.480;2022-12-11T20:14:29;9.20;;;8.20;;
51925;SDS011;37952;51.938;15.480;2022-12-11T20:17:32;16.90;;;11.10;;
51925;SDS011;37952;51.938;15.480;2022-12-11T20:20:35;13.20;;;9.00;;